createdAt,value
2018-09-26T00:01:24.539Z,13.40
2018-09-26T00:03:56.102Z,13.50
2018-09-26T00:06:24.886Z,13.40
2018-09-26T00:08:53.688Z,13.40
2018-09-26T00:11:22.494Z,13.20
2018-09-26T00:13:51.291Z,13.20
2018-09-26T00:16:20.105Z,13.00
2018-09-26T00:18:48.918Z,13.10
2018-09-26T00:21:17.704Z,13.20
2018-09-26T00:23:46.510Z,13.20
2018-09-26T00:26:15.294Z,13.20
2018-09-26T00:28:44.152Z,13.20
2018-09-26T00:31:12.947Z,13.10
2018-09-26T00:33:41.727Z,13.10
2018-09-26T00:36:10.613Z,13.20
2018-09-26T00:38:39.418Z,13.20
2018-09-26T00:41:08.191Z,13.30
2018-09-26T00:43:37.018Z,13.30
2018-09-26T00:46:06.415Z,13.20
2018-09-26T00:48:35.250Z,13.20
2018-09-26T00:51:04.416Z,13.20
2018-09-26T00:53:33.207Z,13.10
2018-09-26T00:56:02.319Z,13.10
2018-09-26T00:58:43.223Z,13.00
2018-09-26T01:01:12.168Z,13.20
2018-09-26T01:03:41.007Z,13.10
2018-09-26T01:06:09.818Z,13.20
2018-09-26T01:08:38.671Z,13.20
2018-09-26T01:11:07.611Z,13.00
2018-09-26T01:13:36.467Z,13.00
2018-09-26T01:16:05.406Z,13.00
2018-09-26T01:18:34.271Z,12.80
2018-09-26T01:21:03.113Z,12.70
2018-09-26T01:23:31.927Z,12.80
2018-09-26T01:26:00.748Z,12.90
2018-09-26T01:28:29.614Z,12.80
2018-09-26T01:30:58.458Z,12.80
2018-09-26T01:33:27.416Z,12.90
2018-09-26T01:35:56.203Z,12.80
2018-09-26T01:38:25.015Z,12.80
2018-09-26T01:40:53.806Z,12.70
2018-09-26T01:43:22.589Z,12.70
2018-09-26T01:45:51.378Z,12.80
2018-09-26T01:48:20.254Z,12.70
2018-09-26T01:50:49.074Z,12.70
2018-09-26T01:53:17.867Z,12.70
2018-09-26T01:55:46.716Z,12.80
2018-09-26T01:58:15.583Z,12.70
2018-09-26T02:00:44.396Z,12.70
2018-09-26T02:03:13.242Z,12.80
2018-09-26T02:05:42.026Z,12.60
2018-09-26T02:08:10.944Z,12.70
2018-09-26T02:10:39.751Z,12.60
2018-09-26T02:13:08.586Z,12.50
2018-09-26T02:15:37.399Z,12.50
2018-09-26T02:18:06.379Z,12.40
2018-09-26T02:20:35.211Z,12.40
2018-09-26T02:23:04.051Z,12.30
2018-09-26T02:25:32.938Z,12.30
2018-09-26T02:28:01.854Z,12.40
2018-09-26T02:30:30.667Z,12.60
2018-09-26T02:32:59.454Z,12.50
2018-09-26T02:35:28.291Z,12.50
2018-09-26T02:37:57.214Z,12.50
2018-09-26T02:40:26.075Z,12.40
2018-09-26T02:42:54.898Z,12.30
2018-09-26T02:45:23.808Z,12.40
2018-09-26T02:47:52.666Z,12.30
2018-09-26T02:50:21.480Z,12.20
2018-09-26T02:52:50.467Z,12.20
2018-09-26T02:55:19.259Z,12.10
2018-09-26T02:57:48.151Z,12.20
2018-09-26T03:00:18.307Z,12.20
2018-09-26T03:02:47.326Z,12.30
2018-09-26T03:05:16.114Z,12.20
2018-09-26T03:07:45.037Z,12.10
2018-09-26T03:10:13.942Z,12.10
2018-09-26T03:12:42.774Z,12.10
2018-09-26T03:15:11.611Z,12.10
2018-09-26T03:17:40.530Z,12.10
2018-09-26T03:20:09.422Z,12.10
2018-09-26T03:22:38.276Z,12.00
2018-09-26T03:25:07.271Z,12.00
2018-09-26T03:27:36.162Z,12.00
2018-09-26T03:30:05.084Z,12.00
2018-09-26T03:32:33.898Z,12.10
2018-09-26T03:35:02.737Z,12.10
2018-09-26T03:37:31.871Z,12.00
2018-09-26T03:40:00.683Z,12.10
2018-09-26T03:42:29.486Z,12.10
2018-09-26T03:44:58.284Z,12.10
2018-09-26T03:47:27.287Z,12.10
2018-09-26T03:49:56.083Z,12.10
2018-09-26T03:52:24.874Z,12.00
2018-09-26T03:54:53.698Z,12.00
2018-09-26T03:57:22.510Z,12.00
2018-09-26T03:59:51.331Z,11.90
2018-09-26T04:02:20.126Z,11.90
2018-09-26T04:04:48.985Z,12.10
2018-09-26T04:07:17.879Z,12.10
2018-09-26T04:09:46.712Z,12.10
2018-09-26T04:12:15.523Z,12.00
2018-09-26T04:14:44.315Z,11.90
2018-09-26T04:17:13.148Z,11.90
2018-09-26T04:19:42.132Z,11.90
2018-09-26T04:22:10.985Z,11.90
2018-09-26T04:24:39.787Z,11.80
2018-09-26T04:27:08.657Z,11.80
2018-09-26T04:29:37.451Z,11.80
2018-09-26T04:32:06.347Z,11.90
2018-09-26T04:34:35.178Z,11.90
2018-09-26T04:37:04.139Z,12.00
2018-09-26T04:39:32.954Z,12.00
2018-09-26T04:42:01.828Z,12.00
2018-09-26T04:44:30.630Z,12.10
2018-09-26T04:46:59.688Z,12.00
2018-09-26T04:49:28.510Z,12.00
2018-09-26T04:51:57.310Z,12.10
2018-09-26T04:54:26.139Z,12.00
2018-09-26T04:56:55.840Z,12.00
2018-09-26T04:59:29.827Z,12.00
2018-09-26T05:01:58.641Z,12.00
2018-09-26T05:04:27.501Z,12.00
2018-09-26T05:06:56.406Z,12.00
2018-09-26T05:09:25.206Z,12.00
2018-09-26T05:11:54.011Z,11.90
2018-09-26T05:14:22.835Z,12.00
2018-09-26T05:16:51.751Z,12.00
2018-09-26T05:19:20.553Z,11.90
2018-09-26T05:21:49.370Z,12.00
2018-09-26T05:24:18.143Z,12.00
2018-09-26T05:26:47.364Z,12.00
2018-09-26T05:29:16.178Z,12.10
2018-09-26T05:31:44.987Z,12.10
2018-09-26T05:34:13.799Z,12.10
2018-09-26T05:36:42.683Z,12.10
2018-09-26T05:39:12.136Z,12.20
2018-09-26T05:41:41.007Z,12.20
2018-09-26T05:44:09.795Z,12.20
2018-09-26T05:46:38.754Z,12.30
2018-09-26T05:49:07.582Z,12.10
2018-09-26T05:51:36.384Z,12.10
2018-09-26T05:54:05.204Z,12.20
2018-09-26T05:56:34.107Z,12.20
2018-09-26T05:59:03.035Z,12.10
2018-09-26T06:01:31.895Z,12.10
2018-09-26T06:04:00.686Z,12.00
2018-09-26T06:06:29.524Z,12.20
2018-09-26T06:08:58.353Z,12.20
2018-09-26T06:11:27.174Z,12.20
2018-09-26T06:13:56.056Z,12.20
2018-09-26T06:16:24.854Z,12.30
2018-09-26T06:18:53.695Z,12.20
2018-09-26T06:21:22.484Z,12.30
2018-09-26T06:23:51.307Z,12.30
2018-09-26T06:26:20.111Z,12.30
2018-09-26T06:28:48.962Z,12.40
2018-09-26T06:31:17.811Z,12.50
2018-09-26T06:33:46.778Z,12.50
2018-09-26T06:36:15.715Z,12.50
2018-09-26T06:38:44.527Z,12.50
2018-09-26T06:41:13.347Z,12.60
2018-09-26T06:43:42.136Z,12.70
2018-09-26T06:46:10.959Z,12.70
2018-09-26T06:48:39.939Z,12.60
2018-09-26T06:51:08.779Z,12.60
2018-09-26T06:53:37.575Z,12.70
2018-09-26T06:56:06.463Z,12.70
2018-09-26T06:58:35.311Z,12.80
2018-09-26T07:01:04.143Z,12.90
2018-09-26T07:03:32.947Z,12.90
2018-09-26T07:06:01.755Z,12.90
2018-09-26T07:08:30.611Z,12.90
2018-09-26T07:10:59.424Z,12.80
2018-09-26T07:13:28.245Z,12.80
2018-09-26T07:15:57.062Z,12.80
2018-09-26T07:18:25.995Z,12.80
2018-09-26T07:20:54.809Z,12.90
2018-09-26T07:23:23.719Z,12.90
2018-09-26T07:25:52.522Z,12.80
2018-09-26T07:28:21.415Z,12.90
2018-09-26T07:30:53.254Z,12.80
2018-09-26T07:33:22.035Z,12.90
2018-09-26T07:35:50.843Z,13.10
2018-09-26T07:38:19.763Z,13.10
2018-09-26T07:40:48.899Z,13.30
2018-09-26T07:43:17.734Z,13.50
2018-09-26T07:45:46.710Z,13.60
2018-09-26T07:48:15.550Z,13.70
2018-09-26T07:50:44.434Z,13.80
2018-09-26T07:53:13.306Z,13.70
2018-09-26T07:55:42.082Z,13.60
2018-09-26T07:58:10.987Z,13.60
2018-09-26T08:00:39.827Z,13.60
2018-09-26T08:03:08.762Z,13.60
2018-09-26T08:05:37.601Z,13.70
2018-09-26T08:08:06.415Z,13.50
2018-09-26T08:10:35.248Z,13.70
2018-09-26T08:13:04.071Z,13.80
2018-09-26T08:15:32.879Z,13.50
2018-09-26T08:18:01.797Z,13.30
2018-09-26T08:20:30.639Z,13.50
2018-09-26T08:22:59.447Z,13.60
2018-09-26T08:25:28.263Z,13.40
2018-09-26T08:27:57.075Z,13.50
2018-09-26T08:30:25.885Z,13.80
2018-09-26T08:32:54.702Z,13.90
2018-09-26T08:35:23.862Z,13.90
2018-09-26T08:37:52.727Z,13.60
2018-09-26T08:40:21.943Z,13.60
2018-09-26T08:42:50.764Z,13.30
2018-09-26T08:45:20.142Z,13.50
2018-09-26T08:47:49.116Z,13.80
2018-09-26T08:50:17.906Z,13.30
2018-09-26T08:52:46.690Z,13.60
2018-09-26T08:55:15.502Z,13.80
2018-09-26T08:57:44.327Z,13.50
2018-09-26T09:00:17.469Z,13.80
2018-09-26T09:02:46.506Z,13.90
2018-09-26T09:05:15.348Z,14.00
2018-09-26T09:07:44.175Z,14.20
2018-09-26T09:10:13.047Z,14.10
2018-09-26T09:12:41.839Z,13.90
2018-09-26T09:15:10.626Z,14.10
2018-09-26T09:17:39.551Z,14.00
2018-09-26T09:20:08.349Z,13.70
2018-09-26T09:22:37.235Z,13.70
2018-09-26T09:25:06.107Z,13.40
2018-09-26T09:27:34.925Z,13.00
2018-09-26T09:30:03.907Z,13.40
2018-09-26T09:32:39.456Z,13.60
2018-09-26T09:35:08.326Z,13.70
2018-09-26T09:37:37.194Z,13.90
2018-09-26T09:40:06.051Z,13.80
2018-09-26T09:42:34.881Z,14.10
2018-09-26T09:45:03.722Z,14.30
2018-09-26T09:47:32.610Z,14.50
2018-09-26T09:50:01.434Z,14.70
2018-09-26T09:52:30.262Z,14.80
2018-09-26T09:54:59.071Z,14.60
2018-09-26T09:57:27.946Z,14.40
2018-09-26T09:59:56.851Z,14.40
2018-09-26T10:02:25.744Z,14.30
2018-09-26T10:04:54.505Z,14.10
2018-09-26T10:07:23.326Z,14.40
2018-09-26T10:09:52.159Z,14.70
2018-09-26T10:12:20.970Z,14.70
2018-09-26T10:14:49.759Z,14.60
2018-09-26T10:17:18.610Z,14.70
2018-09-26T10:19:47.422Z,15.00
2018-09-26T10:22:16.259Z,15.30
2018-09-26T10:24:45.075Z,15.20
2018-09-26T10:27:13.947Z,14.90
2018-09-26T10:29:42.778Z,15.00
2018-09-26T10:32:11.699Z,15.10
2018-09-26T10:34:40.474Z,15.20
2018-09-26T10:37:09.303Z,15.60
2018-09-26T10:39:38.138Z,15.30
2018-09-26T10:42:07.030Z,15.40
2018-09-26T10:44:35.879Z,15.50
2018-09-26T10:47:04.788Z,15.70
2018-09-26T10:49:33.594Z,15.80
2018-09-26T10:52:02.422Z,15.90
2018-09-26T10:54:31.213Z,15.80
2018-09-26T10:57:00.104Z,15.90
2018-09-26T10:59:31.234Z,16.10
2018-09-26T11:02:00.036Z,16.10
2018-09-26T11:04:28.836Z,16.20
2018-09-26T11:06:57.675Z,16.20
2018-09-26T11:09:26.499Z,16.60
2018-09-26T11:11:55.303Z,16.70
2018-09-26T11:14:24.151Z,16.90
2018-09-26T11:16:52.971Z,17.10
2018-09-26T11:19:21.791Z,17.30
2018-09-26T11:21:50.613Z,17.50
2018-09-26T11:24:19.415Z,17.70
2018-09-26T11:26:48.447Z,18.00
2018-09-26T11:29:17.246Z,18.20
2018-09-26T11:31:46.051Z,18.30
2018-09-26T11:34:14.877Z,18.50
2018-09-26T11:36:43.682Z,18.60
2018-09-26T11:39:12.543Z,18.90
2018-09-26T11:41:41.307Z,18.90
2018-09-26T11:44:10.158Z,19.20
2018-09-26T11:46:38.932Z,19.20
2018-09-26T11:49:07.787Z,19.50
2018-09-26T11:51:36.581Z,19.70
2018-09-26T11:54:05.111Z,19.80
2018-09-26T11:56:33.903Z,19.90
2018-09-26T11:59:02.755Z,20.10
2018-09-26T12:01:31.573Z,20.20
2018-09-26T12:04:00.379Z,20.30
2018-09-26T12:06:29.214Z,20.50
2018-09-26T12:08:58.006Z,20.70
2018-09-26T12:11:26.930Z,20.90
2018-09-26T12:13:55.810Z,21.10
2018-09-26T12:16:24.586Z,21.00
2018-09-26T12:18:53.412Z,21.10
2018-09-26T12:21:30.443Z,21.10
2018-09-26T12:23:51.062Z,21.30
2018-09-26T12:26:19.872Z,21.40
2018-09-26T12:28:48.680Z,21.30
2018-09-26T12:31:17.482Z,21.40
2018-09-26T12:33:46.398Z,21.70
2018-09-26T12:36:15.307Z,22.00
2018-09-26T12:38:44.111Z,21.90
2018-09-26T12:41:13.039Z,21.70
2018-09-26T12:43:42.753Z,21.80
2018-09-26T12:46:11.610Z,22.00
2018-09-26T12:48:40.425Z,22.20
2018-09-26T12:51:09.226Z,22.20
2018-09-26T12:53:38.114Z,22.30
2018-09-26T12:56:06.934Z,22.40
2018-09-26T12:58:35.768Z,22.50
2018-09-26T13:01:04.587Z,22.30
2018-09-26T13:03:33.381Z,22.50
2018-09-26T13:06:02.174Z,22.80
2018-09-26T13:08:31.036Z,23.00
2018-09-26T13:10:59.878Z,22.90
2018-09-26T13:13:28.695Z,22.80
2018-09-26T13:15:57.727Z,23.00
2018-09-26T13:18:26.645Z,23.00
2018-09-26T13:20:55.401Z,22.80
2018-09-26T13:23:24.195Z,22.40
2018-09-26T13:25:52.990Z,22.40
2018-09-26T13:28:21.842Z,22.70
2018-09-26T13:30:50.856Z,23.00
2018-09-26T13:33:19.639Z,22.90
2018-09-26T13:35:48.439Z,22.80
2018-09-26T13:38:17.299Z,22.80
2018-09-26T13:40:46.115Z,22.70
2018-09-26T13:43:14.914Z,22.80
2018-09-26T13:45:43.757Z,22.80
2018-09-26T13:48:12.708Z,22.80
2018-09-26T13:50:41.513Z,22.80
2018-09-26T13:53:10.339Z,22.80
2018-09-26T13:55:39.166Z,22.40
2018-09-26T13:58:08.011Z,22.10
2018-09-26T14:00:36.812Z,21.90
2018-09-26T14:03:05.639Z,21.80
2018-09-26T14:05:34.450Z,21.80
2018-09-26T14:08:03.282Z,21.80
2018-09-26T14:10:32.087Z,21.60
2018-09-26T14:13:00.895Z,21.60
2018-09-26T14:15:29.756Z,21.80
2018-09-26T14:17:58.619Z,21.50
2018-09-26T14:20:27.436Z,21.20
2018-09-26T14:22:56.400Z,21.00
2018-09-26T14:25:25.145Z,20.80
2018-09-26T14:27:53.986Z,20.60
2018-09-26T14:30:22.870Z,20.10
2018-09-26T14:32:51.595Z,20.00
2018-09-26T14:35:20.405Z,19.90
2018-09-26T14:37:49.382Z,19.90
2018-09-26T14:40:18.210Z,19.80
2018-09-26T14:42:47.019Z,19.70
2018-09-26T14:45:15.930Z,19.20
2018-09-26T14:47:44.796Z,19.30
2018-09-26T14:50:13.672Z,19.00
2018-09-26T14:52:42.518Z,18.80
2018-09-26T14:55:11.321Z,18.60
2018-09-26T14:57:40.134Z,18.60
2018-09-26T15:00:11.158Z,18.50
2018-09-26T15:02:40.278Z,18.40
2018-09-26T15:05:09.097Z,18.20
2018-09-26T15:07:38.062Z,18.30
2018-09-26T15:10:07.847Z,18.50
2018-09-26T15:12:36.680Z,18.40
2018-09-26T15:15:05.641Z,18.30
2018-09-26T15:17:34.555Z,18.20
2018-09-26T15:20:03.715Z,18.20
2018-09-26T15:22:32.543Z,18.20
2018-09-26T15:25:01.350Z,18.30
2018-09-26T15:27:30.208Z,18.40
2018-09-26T15:29:59.041Z,18.20
2018-09-26T15:32:27.953Z,18.20
2018-09-26T15:34:56.711Z,17.90
2018-09-26T15:37:25.585Z,17.70
2018-09-26T15:39:54.436Z,17.80
2018-09-26T15:42:23.317Z,17.60
2018-09-26T15:44:52.046Z,17.60
2018-09-26T15:47:20.946Z,17.50
2018-09-26T15:49:49.735Z,17.60
2018-09-26T15:52:18.549Z,17.70
2018-09-26T15:54:47.351Z,17.70
2018-09-26T15:57:16.211Z,17.60
2018-09-26T15:59:45.023Z,17.50
2018-09-26T16:02:13.946Z,17.60
2018-09-26T16:04:42.811Z,17.70
2018-09-26T16:07:11.618Z,17.80
2018-09-26T16:09:40.525Z,17.50
2018-09-26T16:12:09.343Z,17.70
2018-09-26T16:14:38.255Z,17.70
2018-09-26T16:17:07.109Z,17.70
2018-09-26T16:19:35.943Z,17.60
2018-09-26T16:22:04.880Z,17.60
2018-09-26T16:24:33.682Z,17.60
2018-09-26T16:27:02.654Z,17.70
2018-09-26T16:29:31.739Z,17.50
2018-09-26T16:32:00.619Z,17.20
2018-09-26T16:34:29.407Z,17.30
2018-09-26T16:36:58.239Z,17.50
2018-09-26T16:39:27.193Z,17.40
2018-09-26T16:41:55.947Z,17.40
2018-09-26T16:44:24.837Z,17.50
2018-09-26T16:46:53.694Z,17.50
2018-09-26T16:49:22.548Z,17.30
2018-09-26T16:51:51.386Z,17.30
2018-09-26T16:54:20.225Z,17.30
2018-09-26T16:56:50.111Z,17.30
2018-09-26T16:59:27.162Z,17.20
2018-09-26T17:01:56.011Z,17.10
2018-09-26T17:04:25.007Z,17.20
2018-09-26T17:06:53.784Z,17.20
2018-09-26T17:09:22.612Z,17.00
2018-09-26T17:11:51.431Z,17.00
2018-09-26T17:14:20.357Z,17.00
2018-09-26T17:16:49.209Z,16.90
2018-09-26T17:19:18.144Z,16.80
2018-09-26T17:21:46.907Z,16.60
2018-09-26T17:24:15.757Z,16.60
2018-09-26T17:26:44.580Z,16.70
2018-09-26T17:29:13.413Z,16.70
2018-09-26T17:31:42.276Z,16.70
2018-09-26T17:34:14.067Z,16.70
2018-09-26T17:36:43.440Z,16.60
2018-09-26T17:39:12.640Z,16.50
2018-09-26T17:41:42.264Z,16.50
2018-09-26T17:44:11.143Z,16.40
2018-09-26T17:46:40.123Z,16.40
2018-09-26T17:49:10.047Z,16.40
2018-09-26T17:51:39.017Z,16.30
2018-09-26T17:54:07.881Z,16.00
2018-09-26T17:56:37.259Z,15.90
2018-09-26T17:59:08.869Z,15.70
2018-09-26T18:01:38.111Z,15.90
2018-09-26T18:04:06.993Z,16.00
2018-09-26T18:06:35.818Z,15.80
2018-09-26T18:09:09.054Z,15.70
2018-09-26T18:11:37.851Z,15.60
2018-09-26T18:14:06.863Z,15.50
2018-09-26T18:16:36.355Z,15.70
2018-09-26T18:19:06.195Z,15.80
2018-09-26T18:21:35.835Z,15.60
2018-09-26T18:24:04.738Z,15.30
2018-09-26T18:26:33.575Z,15.10
2018-09-26T18:29:02.449Z,15.00
2018-09-26T18:31:31.327Z,14.90
2018-09-26T18:34:00.187Z,14.80
2018-09-26T18:36:29.038Z,15.00
2018-09-26T18:38:58.342Z,14.90
2018-09-26T18:41:27.119Z,14.70
2018-09-26T18:43:56.518Z,14.70
2018-09-26T18:46:25.452Z,14.60
2018-09-26T18:48:54.319Z,14.70
2018-09-26T18:51:24.146Z,15.00
2018-09-26T18:53:53.054Z,15.10
2018-09-26T18:56:21.892Z,15.00
2018-09-26T18:58:50.782Z,15.00
2018-09-26T19:01:19.598Z,15.00
2018-09-26T19:03:48.436Z,15.10
2018-09-26T19:06:17.864Z,15.30
2018-09-26T19:08:47.455Z,15.20
2018-09-26T19:11:16.341Z,15.10
2018-09-26T19:13:45.767Z,15.10
2018-09-26T19:16:14.607Z,15.10
2018-09-26T19:18:44.966Z,15.10
2018-09-26T19:21:13.886Z,15.10
2018-09-26T19:23:43.471Z,15.10
2018-09-26T19:26:12.900Z,15.10
2018-09-26T19:28:42.587Z,15.10
2018-09-26T19:31:11.702Z,15.10
2018-09-26T19:33:42.119Z,15.20
2018-09-26T19:36:11.304Z,15.20
2018-09-26T19:38:40.260Z,15.20
2018-09-26T19:41:09.100Z,15.00
2018-09-26T19:43:38.706Z,14.90
2018-09-26T19:46:07.580Z,15.00
2018-09-26T19:48:37.476Z,15.00
2018-09-26T19:51:06.418Z,14.80
2018-09-26T19:53:35.227Z,14.90
2018-09-26T19:56:05.071Z,14.90
2018-09-26T19:58:33.951Z,15.00
2018-09-26T20:01:02.786Z,15.00
2018-09-26T20:03:31.606Z,15.00
2018-09-26T20:06:01.455Z,15.10
2018-09-26T20:08:30.377Z,15.10
2018-09-26T20:10:59.236Z,15.10
2018-09-26T20:13:28.100Z,15.00
2018-09-26T20:15:57.289Z,15.10
2018-09-26T20:18:26.175Z,15.00
2018-09-26T20:20:55.000Z,14.90
2018-09-26T20:23:24.745Z,14.90
2018-09-26T20:25:53.454Z,15.00
2018-09-26T20:28:22.933Z,15.00
2018-09-26T20:30:51.790Z,14.90
2018-09-26T20:33:21.786Z,14.90
2018-09-26T20:35:50.691Z,14.90
2018-09-26T20:38:19.576Z,14.90
2018-09-26T20:40:48.902Z,14.90
2018-09-26T20:43:17.791Z,14.90
2018-09-26T20:45:46.628Z,14.90
2018-09-26T20:48:15.536Z,14.90
2018-09-26T20:50:44.384Z,14.90
2018-09-26T20:53:19.887Z,14.80
2018-09-26T20:55:48.711Z,14.70
2018-09-26T20:58:17.550Z,14.80
2018-09-26T21:00:46.379Z,14.70
2018-09-26T21:03:15.980Z,14.80
2018-09-26T21:05:44.842Z,14.80
2018-09-26T21:08:13.707Z,14.80
2018-09-26T21:10:42.527Z,14.70
2018-09-26T21:13:11.349Z,14.80
2018-09-26T21:15:40.135Z,14.80
2018-09-26T21:18:09.131Z,14.80
2018-09-26T21:20:37.992Z,14.90
2018-09-26T21:23:06.943Z,14.90
2018-09-26T21:25:35.752Z,14.80
2018-09-26T21:28:04.635Z,14.80
2018-09-26T21:30:33.415Z,14.80
2018-09-26T21:33:02.196Z,14.70
2018-09-26T21:35:31.098Z,14.70
2018-09-26T21:37:59.907Z,14.70
2018-09-26T21:40:29.520Z,14.70
2018-09-26T21:42:58.326Z,14.60
2018-09-26T21:45:27.127Z,14.60
2018-09-26T21:47:55.963Z,14.60
2018-09-26T21:50:24.783Z,14.50
2018-09-26T21:52:53.615Z,14.60
2018-09-26T21:55:22.438Z,14.50
2018-09-26T21:57:51.431Z,14.50
2018-09-26T22:00:22.053Z,14.40
2018-09-26T22:02:53.555Z,14.40
2018-09-26T22:05:22.360Z,14.50
2018-09-26T22:07:51.251Z,14.50
2018-09-26T22:10:20.059Z,14.50
2018-09-26T22:12:48.858Z,14.40
2018-09-26T22:15:21.631Z,14.30
2018-09-26T22:17:51.186Z,14.30
2018-09-26T22:20:19.987Z,14.40
2018-09-26T22:22:49.114Z,14.30
2018-09-26T22:25:18.062Z,14.40
2018-09-26T22:27:47.366Z,14.30
2018-09-26T22:30:16.172Z,14.30
2018-09-26T22:32:44.990Z,14.30
2018-09-26T22:35:13.810Z,14.20
2018-09-26T22:37:42.676Z,14.20
2018-09-26T22:40:11.507Z,14.10
2018-09-26T22:42:40.299Z,14.10
2018-09-26T22:45:09.110Z,14.10
2018-09-26T22:47:37.935Z,14.10
2018-09-26T22:50:06.756Z,14.00
2018-09-26T22:52:35.562Z,14.10
2018-09-26T22:55:04.442Z,14.10
2018-09-26T22:57:33.318Z,14.10
2018-09-26T23:00:02.172Z,14.10
2018-09-26T23:02:31.614Z,14.00
2018-09-26T23:05:00.412Z,14.00
2018-09-26T23:07:29.233Z,14.00
2018-09-26T23:09:58.051Z,14.00
2018-09-26T23:12:26.855Z,14.00
2018-09-26T23:14:55.658Z,14.00
2018-09-26T23:17:24.535Z,13.90
2018-09-26T23:19:53.340Z,13.90
2018-09-26T23:22:22.165Z,13.80
2018-09-26T23:24:50.966Z,13.90
2018-09-26T23:27:19.779Z,13.90
2018-09-26T23:29:48.595Z,13.90
2018-09-26T23:32:17.394Z,14.00
2018-09-26T23:34:46.215Z,13.90
2018-09-26T23:37:15.870Z,14.00
2018-09-26T23:39:44.703Z,13.90
2018-09-26T23:42:13.471Z,13.80
2018-09-26T23:44:42.272Z,13.80
2018-09-26T23:47:11.291Z,13.80
2018-09-26T23:49:40.081Z,13.70
2018-09-26T23:52:08.859Z,13.70
2018-09-26T23:54:37.731Z,13.70
2018-09-26T23:57:06.715Z,13.70
2018-09-26T23:59:35.527Z,13.70
